sensor_id;sensor_type;location;lat;lon;timestamp;P1;durP1;ratioP1;P2;durP2;ratioP2
62880;SDS011;48969;49.934;8.596;2023-07-16T00:01:40;5.30;;;3.67;;
62880;SDS011;48969;49.934;8.596;2023-07-16T00:04:05;5.93;;;3.33;;
62880;SDS011;48969;49.934;8.596;2023-07-16T00:06:33;4.50;;;2.80;;
62880;SDS011;48969;49.934;8.596;2023-07-16T00:08:59;4.10;;;2.78;;
62880;SDS011;48969;49.934;8.596;2023-07-16T00:11:24;4.88;;;3.30;;
62880;SDS011;48969;49.934;8.596;2023-07-16T00:13:50;4.75;;;2.90;;
62880;SDS011;48969;49.934;8.596;2023-07-16T00:16:16;4.43;;;2.97;;
62880;SDS011;48969;49.934;8.596;2023-07-16T00:18:41;4.75;;;2.95;;
62880;SDS011;48969;49.934;8.596;2023-07-16T00:21:09;2.95;;;2.63;;
62880;SDS011;48969;49.934;8.596;2023-07-16T00:23:34;3.80;;;2.80;;
62880;SDS011;48969;49.934;8.596;2023-07-16T00:26:00;3.50;;;3.13;;
62880;SDS011;48969;49.934;8.596;2023-07-16T00:28:25;4.10;;;2.50;;
62880;SDS011;48969;49.934;8.596;2023-07-16T00:30:50;3.10;;;2.47;;
62880;SDS011;48969;49.934;8.596;2023-07-16T00:33:16;2.95;;;2.42;;
62880;SDS011;48969;49.934;8.596;2023-07-16T00:35:50;3.17;;;2.58;;
62880;SDS011;48969;49.934;8.596;2023-07-16T00:38:19;3.22;;;2.00;;
62880;SDS011;48969;49.934;8.596;2023-07-16T00:40:45;3.67;;;2.28;;
62880;SDS011;48969;49.934;8.596;2023-07-16T00:43:11;2.72;;;2.30;;
62880;SDS011;48969;49.934;8.596;2023-07-16T00:45:37;2.20;;;1.92;;
62880;SDS011;48969;49.934;8.596;2023-07-16T00:48:04;2.05;;;1.83;;
62880;SDS011;48969;49.934;8.596;2023-07-16T00:50:31;2.95;;;1.70;;
62880;SDS011;48969;49.934;8.596;2023-07-16T00:52:59;2.30;;;1.73;;
62880;SDS011;48969;49.934;8.596;2023-07-16T00:55:31;1.80;;;1.65;;
62880;SDS011;48969;49.934;8.596;2023-07-16T00:58:03;1.77;;;1.60;;
62880;SDS011;48969;49.934;8.596;2023-07-16T01:00:34;3.70;;;1.83;;
62880;SDS011;48969;49.934;8.596;2023-07-16T01:03:04;2.17;;;1.77;;
62880;SDS011;48969;49.934;8.596;2023-07-16T01:05:34;3.00;;;1.70;;
62880;SDS011;48969;49.934;8.596;2023-07-16T01:08:27;2.28;;;1.65;;
62880;SDS011;48969;49.934;8.596;2023-07-16T01:10:58;4.15;;;1.67;;
62880;SDS011;48969;49.934;8.596;2023-07-16T01:13:24;2.22;;;1.45;;
62880;SDS011;48969;49.934;8.596;2023-07-16T01:15:50;2.60;;;1.50;;
62880;SDS011;48969;49.934;8.596;2023-07-16T01:18:15;3.55;;;1.95;;
62880;SDS011;48969;49.934;8.596;2023-07-16T01:20:41;3.13;;;1.73;;
62880;SDS011;48969;49.934;8.596;2023-07-16T01:31:46;2.92;;;1.80;;
62880;SDS011;48969;49.934;8.596;2023-07-16T01:34:14;1.90;;;1.67;;
62880;SDS011;48969;49.934;8.596;2023-07-16T01:36:39;2.05;;;1.70;;
62880;SDS011;48969;49.934;8.596;2023-07-16T01:39:06;2.55;;;1.50;;
62880;SDS011;48969;49.934;8.596;2023-07-16T01:41:31;3.38;;;2.00;;
62880;SDS011;48969;49.934;8.596;2023-07-16T01:43:56;3.20;;;1.83;;
62880;SDS011;48969;49.934;8.596;2023-07-16T01:46:21;2.42;;;1.65;;
62880;SDS011;48969;49.934;8.596;2023-07-16T01:48:47;1.88;;;1.70;;
62880;SDS011;48969;49.934;8.596;2023-07-16T01:51:12;2.85;;;1.83;;
62880;SDS011;48969;49.934;8.596;2023-07-16T01:53:39;2.80;;;1.83;;
62880;SDS011;48969;49.934;8.596;2023-07-16T01:56:05;2.40;;;1.70;;
62880;SDS011;48969;49.934;8.596;2023-07-16T01:58:30;2.72;;;1.55;;
62880;SDS011;48969;49.934;8.596;2023-07-16T02:00:55;3.53;;;2.00;;
62880;SDS011;48969;49.934;8.596;2023-07-16T02:03:21;2.67;;;1.83;;
62880;SDS011;48969;49.934;8.596;2023-07-16T02:05:46;3.92;;;1.85;;
62880;SDS011;48969;49.934;8.596;2023-07-16T02:08:12;3.03;;;1.60;;
62880;SDS011;48969;49.934;8.596;2023-07-16T02:10:37;3.30;;;2.00;;
62880;SDS011;48969;49.934;8.596;2023-07-16T02:13:03;2.72;;;1.85;;
62880;SDS011;48969;49.934;8.596;2023-07-16T02:15:28;2.70;;;1.73;;
62880;SDS011;48969;49.934;8.596;2023-07-16T02:17:53;3.85;;;1.75;;
62880;SDS011;48969;49.934;8.596;2023-07-16T02:20:19;1.67;;;1.50;;
62880;SDS011;48969;49.934;8.596;2023-07-16T02:22:44;2.70;;;1.75;;
62880;SDS011;48969;49.934;8.596;2023-07-16T02:25:09;2.97;;;1.60;;
62880;SDS011;48969;49.934;8.596;2023-07-16T02:27:34;3.72;;;1.70;;
62880;SDS011;48969;49.934;8.596;2023-07-16T02:30:00;3.15;;;1.90;;
62880;SDS011;48969;49.934;8.596;2023-07-16T02:32:25;3.78;;;1.90;;
62880;SDS011;48969;49.934;8.596;2023-07-16T02:34:50;12.65;;;7.40;;
62880;SDS011;48969;49.934;8.596;2023-07-16T02:37:16;5.63;;;3.15;;
62880;SDS011;48969;49.934;8.596;2023-07-16T02:39:41;4.53;;;2.28;;
62880;SDS011;48969;49.934;8.596;2023-07-16T02:42:08;4.07;;;2.20;;
62880;SDS011;48969;49.934;8.596;2023-07-16T02:44:34;3.00;;;1.98;;
62880;SDS011;48969;49.934;8.596;2023-07-16T02:47:03;3.40;;;2.00;;
62880;SDS011;48969;49.934;8.596;2023-07-16T02:49:29;3.38;;;2.00;;
62880;SDS011;48969;49.934;8.596;2023-07-16T02:51:54;4.35;;;2.40;;
62880;SDS011;48969;49.934;8.596;2023-07-16T02:54:19;2.55;;;1.75;;
62880;SDS011;48969;49.934;8.596;2023-07-16T02:56:45;3.08;;;1.90;;
62880;SDS011;48969;49.934;8.596;2023-07-16T02:59:10;5.25;;;2.45;;
62880;SDS011;48969;49.934;8.596;2023-07-16T03:01:35;4.85;;;2.10;;
62880;SDS011;48969;49.934;8.596;2023-07-16T03:04:00;4.40;;;2.10;;
62880;SDS011;48969;49.934;8.596;2023-07-16T03:06:26;3.65;;;2.00;;
62880;SDS011;48969;49.934;8.596;2023-07-16T03:08:51;4.28;;;1.92;;
62880;SDS011;48969;49.934;8.596;2023-07-16T03:11:16;3.97;;;2.15;;
62880;SDS011;48969;49.934;8.596;2023-07-16T03:13:41;3.30;;;2.15;;
62880;SDS011;48969;49.934;8.596;2023-07-16T03:16:07;2.42;;;1.92;;
62880;SDS011;48969;49.934;8.596;2023-07-16T03:18:32;3.80;;;1.90;;
62880;SDS011;48969;49.934;8.596;2023-07-16T03:21:03;4.72;;;2.00;;
62880;SDS011;48969;49.934;8.596;2023-07-16T03:23:28;3.88;;;2.03;;
62880;SDS011;48969;49.934;8.596;2023-07-16T03:25:53;3.25;;;1.88;;
62880;SDS011;48969;49.934;8.596;2023-07-16T03:28:19;3.80;;;1.90;;
62880;SDS011;48969;49.934;8.596;2023-07-16T03:30:47;3.83;;;2.10;;
62880;SDS011;48969;49.934;8.596;2023-07-16T03:33:13;4.82;;;2.10;;
62880;SDS011;48969;49.934;8.596;2023-07-16T03:35:41;5.72;;;1.98;;
62880;SDS011;48969;49.934;8.596;2023-07-16T03:38:07;4.22;;;1.90;;
62880;SDS011;48969;49.934;8.596;2023-07-16T03:40:32;3.85;;;2.03;;
62880;SDS011;48969;49.934;8.596;2023-07-16T03:42:58;4.25;;;2.17;;
62880;SDS011;48969;49.934;8.596;2023-07-16T03:45:23;3.42;;;2.08;;
62880;SDS011;48969;49.934;8.596;2023-07-16T03:47:49;5.68;;;2.97;;
62880;SDS011;48969;49.934;8.596;2023-07-16T03:50:14;4.00;;;2.58;;
62880;SDS011;48969;49.934;8.596;2023-07-16T03:52:39;5.43;;;1.88;;
62880;SDS011;48969;49.934;8.596;2023-07-16T03:55:04;4.40;;;2.10;;
62880;SDS011;48969;49.934;8.596;2023-07-16T03:57:31;3.22;;;1.90;;
62880;SDS011;48969;49.934;8.596;2023-07-16T03:59:57;3.70;;;2.08;;
62880;SDS011;48969;49.934;8.596;2023-07-16T04:02:23;3.78;;;2.20;;
62880;SDS011;48969;49.934;8.596;2023-07-16T04:04:49;4.10;;;1.80;;
62880;SDS011;48969;49.934;8.596;2023-07-16T04:07:15;5.00;;;2.10;;
62880;SDS011;48969;49.934;8.596;2023-07-16T04:09:40;2.40;;;1.80;;
62880;SDS011;48969;49.934;8.596;2023-07-16T04:12:06;6.00;;;2.17;;
62880;SDS011;48969;49.934;8.596;2023-07-16T04:14:32;3.38;;;2.22;;
62880;SDS011;48969;49.934;8.596;2023-07-16T04:16:57;4.53;;;2.20;;
62880;SDS011;48969;49.934;8.596;2023-07-16T04:19:23;5.22;;;2.10;;
62880;SDS011;48969;49.934;8.596;2023-07-16T04:21:48;3.80;;;2.00;;
62880;SDS011;48969;49.934;8.596;2023-07-16T04:24:13;4.32;;;1.80;;
62880;SDS011;48969;49.934;8.596;2023-07-16T04:26:39;3.38;;;2.00;;
62880;SDS011;48969;49.934;8.596;2023-07-16T04:29:04;3.80;;;2.45;;
62880;SDS011;48969;49.934;8.596;2023-07-16T04:31:30;5.75;;;2.30;;
62880;SDS011;48969;49.934;8.596;2023-07-16T04:33:55;3.10;;;2.00;;
62880;SDS011;48969;49.934;8.596;2023-07-16T04:36:20;4.80;;;2.10;;
62880;SDS011;48969;49.934;8.596;2023-07-16T04:38:45;4.00;;;2.10;;
62880;SDS011;48969;49.934;8.596;2023-07-16T04:41:11;3.60;;;1.90;;
62880;SDS011;48969;49.934;8.596;2023-07-16T04:43:37;6.47;;;2.10;;
62880;SDS011;48969;49.934;8.596;2023-07-16T04:46:03;4.80;;;2.25;;
62880;SDS011;48969;49.934;8.596;2023-07-16T04:48:28;6.35;;;2.42;;
62880;SDS011;48969;49.934;8.596;2023-07-16T04:50:53;5.13;;;2.30;;
62880;SDS011;48969;49.934;8.596;2023-07-16T04:53:19;5.22;;;2.55;;
62880;SDS011;48969;49.934;8.596;2023-07-16T04:55:44;3.53;;;2.20;;
62880;SDS011;48969;49.934;8.596;2023-07-16T04:58:13;4.43;;;2.03;;
62880;SDS011;48969;49.934;8.596;2023-07-16T05:00:39;6.65;;;2.33;;
62880;SDS011;48969;49.934;8.596;2023-07-16T05:03:05;5.95;;;2.20;;
62880;SDS011;48969;49.934;8.596;2023-07-16T05:05:31;6.63;;;2.10;;
62880;SDS011;48969;49.934;8.596;2023-07-16T05:07:56;5.15;;;2.20;;
62880;SDS011;48969;49.934;8.596;2023-07-16T05:10:21;5.65;;;2.30;;
62880;SDS011;48969;49.934;8.596;2023-07-16T05:12:46;3.88;;;2.03;;
62880;SDS011;48969;49.934;8.596;2023-07-16T05:15:12;4.05;;;2.35;;
62880;SDS011;48969;49.934;8.596;2023-07-16T05:17:37;5.28;;;2.53;;
62880;SDS011;48969;49.934;8.596;2023-07-16T05:20:03;3.08;;;2.22;;
62880;SDS011;48969;49.934;8.596;2023-07-16T05:22:29;4.90;;;2.10;;
62880;SDS011;48969;49.934;8.596;2023-07-16T05:24:54;6.72;;;2.47;;
62880;SDS011;48969;49.934;8.596;2023-07-16T05:27:20;3.53;;;1.80;;
62880;SDS011;48969;49.934;8.596;2023-07-16T05:29:45;4.10;;;2.42;;
62880;SDS011;48969;49.934;8.596;2023-07-16T05:32:10;4.38;;;2.20;;
62880;SDS011;48969;49.934;8.596;2023-07-16T05:34:36;4.35;;;2.22;;
62880;SDS011;48969;49.934;8.596;2023-07-16T05:37:01;4.18;;;2.25;;
62880;SDS011;48969;49.934;8.596;2023-07-16T05:39:26;3.03;;;2.15;;
62880;SDS011;48969;49.934;8.596;2023-07-16T05:41:51;4.72;;;2.38;;
62880;SDS011;48969;49.934;8.596;2023-07-16T05:44:17;7.28;;;2.65;;
62880;SDS011;48969;49.934;8.596;2023-07-16T05:46:42;3.33;;;2.00;;
62880;SDS011;48969;49.934;8.596;2023-07-16T05:49:07;3.78;;;2.30;;
62880;SDS011;48969;49.934;8.596;2023-07-16T05:51:33;5.13;;;2.40;;
62880;SDS011;48969;49.934;8.596;2023-07-16T05:53:58;5.28;;;2.28;;
62880;SDS011;48969;49.934;8.596;2023-07-16T05:56:23;3.72;;;2.40;;
62880;SDS011;48969;49.934;8.596;2023-07-16T05:58:48;4.97;;;2.38;;
62880;SDS011;48969;49.934;8.596;2023-07-16T06:01:14;5.05;;;2.63;;
62880;SDS011;48969;49.934;8.596;2023-07-16T06:03:39;4.05;;;2.53;;
62880;SDS011;48969;49.934;8.596;2023-07-16T06:06:04;3.33;;;2.00;;
62880;SDS011;48969;49.934;8.596;2023-07-16T06:08:30;5.70;;;2.40;;
62880;SDS011;48969;49.934;8.596;2023-07-16T06:10:55;5.57;;;2.55;;
62880;SDS011;48969;49.934;8.596;2023-07-16T06:13:20;5.15;;;2.65;;
62880;SDS011;48969;49.934;8.596;2023-07-16T06:15:46;5.13;;;2.58;;
62880;SDS011;48969;49.934;8.596;2023-07-16T06:18:12;4.20;;;2.20;;
62880;SDS011;48969;49.934;8.596;2023-07-16T06:20:37;4.55;;;2.38;;
62880;SDS011;48969;49.934;8.596;2023-07-16T06:23:03;4.25;;;2.35;;
62880;SDS011;48969;49.934;8.596;2023-07-16T06:25:28;4.63;;;2.60;;
62880;SDS011;48969;49.934;8.596;2023-07-16T06:27:54;5.82;;;2.20;;
62880;SDS011;48969;49.934;8.596;2023-07-16T06:30:19;7.70;;;2.45;;
62880;SDS011;48969;49.934;8.596;2023-07-16T06:32:44;4.97;;;2.45;;
62880;SDS011;48969;49.934;8.596;2023-07-16T06:35:09;5.18;;;2.50;;
62880;SDS011;48969;49.934;8.596;2023-07-16T06:37:35;4.43;;;2.70;;
62880;SDS011;48969;49.934;8.596;2023-07-16T06:40:00;5.97;;;3.08;;
62880;SDS011;48969;49.934;8.596;2023-07-16T06:42:25;4.20;;;2.42;;
62880;SDS011;48969;49.934;8.596;2023-07-16T06:44:51;4.05;;;2.53;;
62880;SDS011;48969;49.934;8.596;2023-07-16T06:47:16;3.90;;;2.55;;
62880;SDS011;48969;49.934;8.596;2023-07-16T06:49:41;5.05;;;2.78;;
62880;SDS011;48969;49.934;8.596;2023-07-16T06:52:07;3.45;;;2.58;;
62880;SDS011;48969;49.934;8.596;2023-07-16T06:54:32;5.63;;;2.90;;
62880;SDS011;48969;49.934;8.596;2023-07-16T06:56:57;3.35;;;2.63;;
62880;SDS011;48969;49.934;8.596;2023-07-16T06:59:23;4.43;;;2.83;;
62880;SDS011;48969;49.934;8.596;2023-07-16T07:01:48;6.07;;;3.35;;
62880;SDS011;48969;49.934;8.596;2023-07-16T07:04:13;5.80;;;2.97;;
62880;SDS011;48969;49.934;8.596;2023-07-16T07:06:38;4.72;;;2.83;;
62880;SDS011;48969;49.934;8.596;2023-07-16T07:09:04;4.03;;;2.60;;
62880;SDS011;48969;49.934;8.596;2023-07-16T07:11:30;6.18;;;2.92;;
62880;SDS011;48969;49.934;8.596;2023-07-16T07:13:56;4.95;;;2.60;;
62880;SDS011;48969;49.934;8.596;2023-07-16T07:16:22;4.88;;;2.53;;
62880;SDS011;48969;49.934;8.596;2023-07-16T07:18:48;4.45;;;2.72;;
62880;SDS011;48969;49.934;8.596;2023-07-16T07:21:13;4.65;;;2.92;;
62880;SDS011;48969;49.934;8.596;2023-07-16T07:23:38;5.53;;;2.75;;
62880;SDS011;48969;49.934;8.596;2023-07-16T07:26:05;6.45;;;3.10;;
62880;SDS011;48969;49.934;8.596;2023-07-16T07:28:30;4.53;;;2.92;;
62880;SDS011;48969;49.934;8.596;2023-07-16T07:30:55;4.50;;;3.10;;
62880;SDS011;48969;49.934;8.596;2023-07-16T07:33:21;4.65;;;3.00;;
62880;SDS011;48969;49.934;8.596;2023-07-16T07:35:48;4.00;;;2.92;;
62880;SDS011;48969;49.934;8.596;2023-07-16T07:38:14;4.75;;;2.85;;
62880;SDS011;48969;49.934;8.596;2023-07-16T07:40:39;6.93;;;2.70;;
62880;SDS011;48969;49.934;8.596;2023-07-16T07:43:07;5.65;;;2.63;;
62880;SDS011;48969;49.934;8.596;2023-07-16T07:45:33;3.78;;;2.45;;
62880;SDS011;48969;49.934;8.596;2023-07-16T07:47:58;5.60;;;3.20;;
62880;SDS011;48969;49.934;8.596;2023-07-16T07:50:23;7.63;;;3.20;;
62880;SDS011;48969;49.934;8.596;2023-07-16T07:52:50;5.88;;;3.13;;
62880;SDS011;48969;49.934;8.596;2023-07-16T07:55:16;4.50;;;2.65;;
62880;SDS011;48969;49.934;8.596;2023-07-16T07:57:41;7.05;;;3.10;;
62880;SDS011;48969;49.934;8.596;2023-07-16T08:00:06;7.20;;;3.20;;
62880;SDS011;48969;49.934;8.596;2023-07-16T08:02:37;5.38;;;3.20;;
62880;SDS011;48969;49.934;8.596;2023-07-16T08:05:03;4.43;;;2.97;;
62880;SDS011;48969;49.934;8.596;2023-07-16T08:07:29;6.25;;;3.42;;
62880;SDS011;48969;49.934;8.596;2023-07-16T08:09:54;5.55;;;3.10;;
62880;SDS011;48969;49.934;8.596;2023-07-16T08:12:19;5.32;;;2.70;;
62880;SDS011;48969;49.934;8.596;2023-07-16T08:14:44;5.68;;;2.45;;
62880;SDS011;48969;49.934;8.596;2023-07-16T08:17:10;5.38;;;2.65;;
62880;SDS011;48969;49.934;8.596;2023-07-16T08:19:35;6.78;;;2.88;;
62880;SDS011;48969;49.934;8.596;2023-07-16T08:22:01;6.40;;;2.70;;
62880;SDS011;48969;49.934;8.596;2023-07-16T08:24:26;4.80;;;2.67;;
62880;SDS011;48969;49.934;8.596;2023-07-16T08:26:51;3.47;;;2.80;;
62880;SDS011;48969;49.934;8.596;2023-07-16T08:29:17;4.85;;;2.38;;
62880;SDS011;48969;49.934;8.596;2023-07-16T08:31:42;3.63;;;2.40;;
62880;SDS011;48969;49.934;8.596;2023-07-16T08:34:07;5.07;;;2.80;;
62880;SDS011;48969;49.934;8.596;2023-07-16T08:36:33;6.72;;;2.67;;
62880;SDS011;48969;49.934;8.596;2023-07-16T08:38:58;6.13;;;2.45;;
62880;SDS011;48969;49.934;8.596;2023-07-16T08:41:24;4.43;;;2.65;;
62880;SDS011;48969;49.934;8.596;2023-07-16T08:43:50;4.80;;;2.15;;
62880;SDS011;48969;49.934;8.596;2023-07-16T08:46:16;4.78;;;2.38;;
62880;SDS011;48969;49.934;8.596;2023-07-16T08:48:41;4.18;;;2.20;;
62880;SDS011;48969;49.934;8.596;2023-07-16T08:51:07;4.53;;;2.15;;
62880;SDS011;48969;49.934;8.596;2023-07-16T08:53:34;4.78;;;2.50;;
62880;SDS011;48969;49.934;8.596;2023-07-16T08:56:00;6.68;;;2.40;;
62880;SDS011;48969;49.934;8.596;2023-07-16T08:58:27;4.75;;;2.42;;
62880;SDS011;48969;49.934;8.596;2023-07-16T09:00:53;3.33;;;2.45;;
62880;SDS011;48969;49.934;8.596;2023-07-16T09:03:20;3.72;;;2.13;;
62880;SDS011;48969;49.934;8.596;2023-07-16T09:05:45;5.72;;;2.15;;
62880;SDS011;48969;49.934;8.596;2023-07-16T09:08:11;4.07;;;2.20;;
62880;SDS011;48969;49.934;8.596;2023-07-16T09:10:40;4.50;;;2.50;;
62880;SDS011;48969;49.934;8.596;2023-07-16T09:13:06;6.30;;;2.50;;
62880;SDS011;48969;49.934;8.596;2023-07-16T09:15:31;3.47;;;2.15;;
62880;SDS011;48969;49.934;8.596;2023-07-16T09:17:59;5.43;;;2.42;;
62880;SDS011;48969;49.934;8.596;2023-07-16T09:20:25;5.63;;;2.30;;
62880;SDS011;48969;49.934;8.596;2023-07-16T09:22:50;4.20;;;2.53;;
62880;SDS011;48969;49.934;8.596;2023-07-16T09:25:20;4.10;;;2.40;;
62880;SDS011;48969;49.934;8.596;2023-07-16T09:27:53;5.55;;;2.53;;
62880;SDS011;48969;49.934;8.596;2023-07-16T09:30:19;5.25;;;2.78;;
62880;SDS011;48969;49.934;8.596;2023-07-16T09:32:44;5.25;;;2.78;;
62880;SDS011;48969;49.934;8.596;2023-07-16T09:35:11;5.85;;;2.25;;
62880;SDS011;48969;49.934;8.596;2023-07-16T09:37:40;5.88;;;2.20;;
62880;SDS011;48969;49.934;8.596;2023-07-16T09:40:09;4.80;;;2.22;;
62880;SDS011;48969;49.934;8.596;2023-07-16T09:42:42;5.30;;;2.33;;
62880;SDS011;48969;49.934;8.596;2023-07-16T09:45:12;3.70;;;2.50;;
62880;SDS011;48969;49.934;8.596;2023-07-16T09:47:47;4.80;;;2.22;;
62880;SDS011;48969;49.934;8.596;2023-07-16T09:50:12;4.57;;;2.40;;
62880;SDS011;48969;49.934;8.596;2023-07-16T09:52:38;3.70;;;2.30;;
62880;SDS011;48969;49.934;8.596;2023-07-16T09:55:05;5.00;;;2.38;;
62880;SDS011;48969;49.934;8.596;2023-07-16T09:57:35;5.80;;;2.20;;
62880;SDS011;48969;49.934;8.596;2023-07-16T10:00:05;4.45;;;2.30;;
62880;SDS011;48969;49.934;8.596;2023-07-16T10:02:36;3.80;;;2.30;;
62880;SDS011;48969;49.934;8.596;2023-07-16T10:08:03;5.63;;;2.60;;
62880;SDS011;48969;49.934;8.596;2023-07-16T10:10:38;5.20;;;2.33;;
62880;SDS011;48969;49.934;8.596;2023-07-16T10:13:06;2.95;;;2.05;;
62880;SDS011;48969;49.934;8.596;2023-07-16T10:15:32;5.63;;;2.35;;
62880;SDS011;48969;49.934;8.596;2023-07-16T10:17:57;6.20;;;2.42;;
62880;SDS011;48969;49.934;8.596;2023-07-16T10:20:36;4.72;;;2.17;;
62880;SDS011;48969;49.934;8.596;2023-07-16T10:23:14;3.78;;;2.15;;
62880;SDS011;48969;49.934;8.596;2023-07-16T10:25:40;4.95;;;2.00;;
62880;SDS011;48969;49.934;8.596;2023-07-16T10:28:22;5.47;;;2.08;;
62880;SDS011;48969;49.934;8.596;2023-07-16T10:30:48;4.97;;;2.10;;
62880;SDS011;48969;49.934;8.596;2023-07-16T10:33:14;4.10;;;2.30;;
62880;SDS011;48969;49.934;8.596;2023-07-16T10:35:44;4.80;;;2.38;;
62880;SDS011;48969;49.934;8.596;2023-07-16T10:38:10;5.35;;;2.42;;
62880;SDS011;48969;49.934;8.596;2023-07-16T10:40:45;4.72;;;2.42;;
62880;SDS011;48969;49.934;8.596;2023-07-16T10:43:11;3.70;;;1.90;;
62880;SDS011;48969;49.934;8.596;2023-07-16T10:45:37;6.65;;;2.15;;
62880;SDS011;48969;49.934;8.596;2023-07-16T10:48:02;3.35;;;2.05;;
62880;SDS011;48969;49.934;8.596;2023-07-16T10:50:28;5.15;;;2.28;;
62880;SDS011;48969;49.934;8.596;2023-07-16T10:52:53;4.78;;;2.17;;
62880;SDS011;48969;49.934;8.596;2023-07-16T10:55:19;3.28;;;1.90;;
62880;SDS011;48969;49.934;8.596;2023-07-16T10:57:48;5.40;;;2.50;;
62880;SDS011;48969;49.934;8.596;2023-07-16T11:00:15;3.65;;;2.00;;
62880;SDS011;48969;49.934;8.596;2023-07-16T11:02:41;5.22;;;2.17;;
62880;SDS011;48969;49.934;8.596;2023-07-16T11:05:12;4.45;;;2.22;;
62880;SDS011;48969;49.934;8.596;2023-07-16T11:07:42;4.13;;;2.15;;
62880;SDS011;48969;49.934;8.596;2023-07-16T11:10:08;4.95;;;2.30;;
62880;SDS011;48969;49.934;8.596;2023-07-16T11:12:33;3.40;;;1.90;;
62880;SDS011;48969;49.934;8.596;2023-07-16T11:14:59;2.95;;;2.00;;
62880;SDS011;48969;49.934;8.596;2023-07-16T11:17:24;4.43;;;2.28;;
62880;SDS011;48969;49.934;8.596;2023-07-16T11:19:50;2.50;;;1.90;;
62880;SDS011;48969;49.934;8.596;2023-07-16T11:22:17;2.05;;;1.60;;
62880;SDS011;48969;49.934;8.596;2023-07-16T11:24:49;3.17;;;1.92;;
62880;SDS011;48969;49.934;8.596;2023-07-16T11:27:16;3.75;;;2.28;;
62880;SDS011;48969;49.934;8.596;2023-07-16T11:29:47;3.10;;;2.13;;
62880;SDS011;48969;49.934;8.596;2023-07-16T11:32:14;3.03;;;1.90;;
62880;SDS011;48969;49.934;8.596;2023-07-16T11:34:51;3.63;;;2.08;;
62880;SDS011;48969;49.934;8.596;2023-07-16T11:37:18;4.57;;;2.22;;
62880;SDS011;48969;49.934;8.596;2023-07-16T11:39:45;4.10;;;2.10;;
62880;SDS011;48969;49.934;8.596;2023-07-16T11:42:11;3.47;;;1.90;;
62880;SDS011;48969;49.934;8.596;2023-07-16T11:44:36;4.05;;;1.98;;
62880;SDS011;48969;49.934;8.596;2023-07-16T11:47:02;4.00;;;2.10;;
62880;SDS011;48969;49.934;8.596;2023-07-16T11:49:28;3.08;;;1.83;;
62880;SDS011;48969;49.934;8.596;2023-07-16T11:51:53;4.05;;;2.25;;
62880;SDS011;48969;49.934;8.596;2023-07-16T11:54:19;4.07;;;2.20;;
62880;SDS011;48969;49.934;8.596;2023-07-16T11:56:44;3.45;;;2.13;;
62880;SDS011;48969;49.934;8.596;2023-07-16T11:59:11;6.30;;;2.25;;
62880;SDS011;48969;49.934;8.596;2023-07-16T12:01:36;4.05;;;1.90;;
62880;SDS011;48969;49.934;8.596;2023-07-16T12:04:02;3.55;;;2.00;;
62880;SDS011;48969;49.934;8.596;2023-07-16T12:06:27;2.50;;;2.00;;
62880;SDS011;48969;49.934;8.596;2023-07-16T12:08:52;3.33;;;2.40;;
62880;SDS011;48969;49.934;8.596;2023-07-16T12:11:20;4.18;;;1.90;;
62880;SDS011;48969;49.934;8.596;2023-07-16T12:13:45;3.65;;;2.13;;
62880;SDS011;48969;49.934;8.596;2023-07-16T12:16:10;3.38;;;2.15;;
62880;SDS011;48969;49.934;8.596;2023-07-16T12:18:36;4.57;;;2.10;;
62880;SDS011;48969;49.934;8.596;2023-07-16T12:21:01;4.50;;;2.35;;
62880;SDS011;48969;49.934;8.596;2023-07-16T12:23:27;3.95;;;2.20;;
62880;SDS011;48969;49.934;8.596;2023-07-16T12:25:52;3.58;;;1.90;;
62880;SDS011;48969;49.934;8.596;2023-07-16T12:28:18;3.22;;;2.20;;
62880;SDS011;48969;49.934;8.596;2023-07-16T12:30:43;3.35;;;2.05;;
62880;SDS011;48969;49.934;8.596;2023-07-16T12:33:08;3.10;;;1.98;;
62880;SDS011;48969;49.934;8.596;2023-07-16T12:35:33;5.25;;;2.25;;
62880;SDS011;48969;49.934;8.596;2023-07-16T12:37:59;5.45;;;2.40;;
62880;SDS011;48969;49.934;8.596;2023-07-16T12:40:24;7.90;;;2.53;;
62880;SDS011;48969;49.934;8.596;2023-07-16T12:42:50;4.65;;;2.28;;
62880;SDS011;48969;49.934;8.596;2023-07-16T12:45:15;4.45;;;2.58;;
62880;SDS011;48969;49.934;8.596;2023-07-16T12:47:41;7.13;;;2.53;;
62880;SDS011;48969;49.934;8.596;2023-07-16T12:50:07;3.90;;;2.10;;
62880;SDS011;48969;49.934;8.596;2023-07-16T12:52:32;4.13;;;2.15;;
62880;SDS011;48969;49.934;8.596;2023-07-16T12:54:58;5.32;;;2.58;;
62880;SDS011;48969;49.934;8.596;2023-07-16T12:57:23;3.40;;;2.00;;
62880;SDS011;48969;49.934;8.596;2023-07-16T12:59:48;2.90;;;1.92;;
62880;SDS011;48969;49.934;8.596;2023-07-16T13:02:13;6.88;;;3.00;;
62880;SDS011;48969;49.934;8.596;2023-07-16T13:04:39;4.00;;;2.50;;
62880;SDS011;48969;49.934;8.596;2023-07-16T13:07:04;4.78;;;2.85;;
62880;SDS011;48969;49.934;8.596;2023-07-16T13:09:30;3.70;;;2.42;;
62880;SDS011;48969;49.934;8.596;2023-07-16T13:11:55;4.88;;;2.58;;
62880;SDS011;48969;49.934;8.596;2023-07-16T13:14:20;4.35;;;2.72;;
62880;SDS011;48969;49.934;8.596;2023-07-16T13:16:45;5.68;;;2.95;;
62880;SDS011;48969;49.934;8.596;2023-07-16T13:19:11;4.03;;;2.50;;
62880;SDS011;48969;49.934;8.596;2023-07-16T13:21:36;4.60;;;2.70;;
62880;SDS011;48969;49.934;8.596;2023-07-16T13:24:01;5.63;;;3.45;;
62880;SDS011;48969;49.934;8.596;2023-07-16T13:26:27;5.75;;;2.92;;
62880;SDS011;48969;49.934;8.596;2023-07-16T13:28:52;4.32;;;3.30;;
62880;SDS011;48969;49.934;8.596;2023-07-16T13:31:17;5.80;;;3.13;;
62880;SDS011;48969;49.934;8.596;2023-07-16T13:33:42;3.80;;;3.00;;
62880;SDS011;48969;49.934;8.596;2023-07-16T13:36:08;4.28;;;2.92;;
62880;SDS011;48969;49.934;8.596;2023-07-16T13:38:33;4.10;;;2.70;;
62880;SDS011;48969;49.934;8.596;2023-07-16T13:40:58;4.55;;;2.70;;
62880;SDS011;48969;49.934;8.596;2023-07-16T13:43:24;6.10;;;3.30;;
62880;SDS011;48969;49.934;8.596;2023-07-16T13:45:49;4.18;;;3.00;;
62880;SDS011;48969;49.934;8.596;2023-07-16T13:48:14;5.15;;;2.88;;
62880;SDS011;48969;49.934;8.596;2023-07-16T13:50:39;3.97;;;2.72;;
62880;SDS011;48969;49.934;8.596;2023-07-16T13:53:05;5.80;;;3.20;;
62880;SDS011;48969;49.934;8.596;2023-07-16T13:55:30;6.00;;;4.03;;
62880;SDS011;48969;49.934;8.596;2023-07-16T13:57:55;4.85;;;3.13;;
62880;SDS011;48969;49.934;8.596;2023-07-16T14:00:21;4.35;;;3.00;;
62880;SDS011;48969;49.934;8.596;2023-07-16T14:02:47;5.65;;;3.50;;
62880;SDS011;48969;49.934;8.596;2023-07-16T14:05:12;6.20;;;3.13;;
62880;SDS011;48969;49.934;8.596;2023-07-16T14:07:37;4.30;;;3.10;;
62880;SDS011;48969;49.934;8.596;2023-07-16T14:10:03;4.65;;;2.85;;
62880;SDS011;48969;49.934;8.596;2023-07-16T14:12:29;4.88;;;3.17;;
62880;SDS011;48969;49.934;8.596;2023-07-16T14:14:54;5.57;;;3.05;;
62880;SDS011;48969;49.934;8.596;2023-07-16T14:17:20;5.32;;;3.17;;
62880;SDS011;48969;49.934;8.596;2023-07-16T14:19:45;5.65;;;3.20;;
62880;SDS011;48969;49.934;8.596;2023-07-16T14:22:10;6.18;;;3.08;;
62880;SDS011;48969;49.934;8.596;2023-07-16T14:24:37;4.70;;;3.25;;
62880;SDS011;48969;49.934;8.596;2023-07-16T14:27:04;8.90;;;6.20;;
62880;SDS011;48969;49.934;8.596;2023-07-16T14:29:31;7.45;;;6.03;;
62880;SDS011;48969;49.934;8.596;2023-07-16T14:31:56;5.40;;;3.22;;
62880;SDS011;48969;49.934;8.596;2023-07-16T14:34:22;6.43;;;3.58;;
62880;SDS011;48969;49.934;8.596;2023-07-16T14:36:50;6.95;;;3.30;;
62880;SDS011;48969;49.934;8.596;2023-07-16T14:39:16;5.50;;;3.83;;
62880;SDS011;48969;49.934;8.596;2023-07-16T14:41:41;6.15;;;3.38;;
62880;SDS011;48969;49.934;8.596;2023-07-16T14:44:06;4.63;;;3.28;;
62880;SDS011;48969;49.934;8.596;2023-07-16T14:46:32;7.53;;;4.28;;
62880;SDS011;48969;49.934;8.596;2023-07-16T14:48:57;6.10;;;3.10;;
62880;SDS011;48969;49.934;8.596;2023-07-16T14:51:23;6.13;;;3.50;;
62880;SDS011;48969;49.934;8.596;2023-07-16T14:53:49;5.18;;;3.42;;